createdAt,value
2018-05-08T00:01:00.607Z,26.37
2018-05-08T00:03:28.556Z,26.57
2018-05-08T00:05:56.428Z,25.27
2018-05-08T00:08:24.387Z,25.77
2018-05-08T00:10:52.216Z,28.10
2018-05-08T00:13:20.885Z,25.70
2018-05-08T00:15:48.762Z,26.30
2018-05-08T00:18:17.732Z,24.47
2018-05-08T00:20:45.687Z,25.80
2018-05-08T00:23:13.632Z,24.57
2018-05-08T00:25:41.492Z,24.70
2018-05-08T00:28:09.316Z,26.40
2018-05-08T00:30:37.276Z,27.00
2018-05-08T00:33:05.131Z,26.70
2018-05-08T00:35:33.000Z,25.50
2018-05-08T00:38:00.873Z,24.77
2018-05-08T00:40:28.779Z,27.30
2018-05-08T00:42:57.421Z,28.07
2018-05-08T00:45:25.261Z,26.00
2018-05-08T00:47:53.206Z,25.90
2018-05-08T00:50:21.076Z,24.37
2018-05-08T00:52:48.949Z,27.07
2018-05-08T00:55:16.842Z,26.37
2018-05-08T00:57:46.499Z,25.23
2018-05-08T01:00:15.121Z,25.23
2018-05-08T01:02:43.013Z,28.77
2018-05-08T01:05:10.873Z,26.80
2018-05-08T01:07:38.820Z,24.67
2018-05-08T01:10:06.669Z,28.80
2018-05-08T01:12:35.260Z,25.70
2018-05-08T01:15:03.240Z,24.30
2018-05-08T01:17:31.110Z,24.47
2018-05-08T01:19:58.970Z,24.03
2018-05-08T01:22:26.825Z,25.00
2018-05-08T01:24:54.691Z,24.40
2018-05-08T01:27:22.573Z,25.93
2018-05-08T01:29:50.455Z,27.10
2018-05-08T01:32:18.351Z,27.27
2018-05-08T01:34:46.874Z,29.00
2018-05-08T01:37:14.763Z,26.47
2018-05-08T01:39:42.654Z,28.90
2018-05-08T01:42:10.544Z,26.73
2018-05-08T01:44:39.189Z,29.30
2018-05-08T01:47:07.021Z,27.90
2018-05-08T01:49:35.000Z,28.13
2018-05-08T01:52:02.864Z,29.60
2018-05-08T01:54:30.864Z,28.97
2018-05-08T01:56:58.714Z,28.57
2018-05-08T01:59:26.584Z,26.93
2018-05-08T02:01:54.436Z,26.57
2018-05-08T02:04:22.281Z,28.07
2018-05-08T02:06:51.039Z,27.90
2018-05-08T02:09:18.867Z,29.60
2018-05-08T02:11:46.725Z,28.07
2018-05-08T02:14:15.138Z,29.57
2018-05-08T02:16:43.011Z,30.40
2018-05-08T02:19:10.926Z,27.17
2018-05-08T02:21:38.807Z,28.07
2018-05-08T02:24:06.705Z,28.70
2018-05-08T02:26:34.575Z,27.80
2018-05-08T02:29:02.528Z,29.60
2018-05-08T02:31:30.443Z,27.70
2018-05-08T02:33:59.066Z,26.20
2018-05-08T02:36:27.012Z,27.10
2018-05-08T02:38:54.897Z,27.10
2018-05-08T02:41:22.751Z,26.90
2018-05-08T02:43:50.663Z,26.60
2018-05-08T02:46:18.569Z,26.40
2018-05-08T02:48:47.216Z,28.10
2018-05-08T02:51:15.066Z,26.60
2018-05-08T02:53:43.904Z,27.50
2018-05-08T02:56:12.596Z,28.77
2018-05-08T02:58:41.236Z,27.37
2018-05-08T03:01:09.196Z,27.70
2018-05-08T03:03:37.129Z,28.63
2018-05-08T03:06:05.101Z,27.30
2018-05-08T03:08:32.971Z,28.17
2018-05-08T03:11:00.900Z,27.80
2018-05-08T03:13:28.770Z,26.77
2018-05-08T03:15:56.660Z,27.23
2018-05-08T03:18:24.508Z,27.03
2018-05-08T03:20:53.198Z,27.80
2018-05-08T03:23:21.818Z,29.23
2018-05-08T03:25:49.705Z,28.00
2018-05-08T03:28:18.497Z,27.60
2018-05-08T03:30:46.379Z,28.47
2018-05-08T03:33:14.239Z,29.80
2018-05-08T03:35:42.093Z,28.47
2018-05-08T03:38:09.966Z,29.00
2018-05-08T03:40:37.965Z,29.70
2018-05-08T03:43:06.640Z,29.67
2018-05-08T03:45:34.550Z,28.97
2018-05-08T03:48:02.493Z,31.50
2018-05-08T03:50:31.180Z,28.70
2018-05-08T03:52:59.894Z,31.20
2018-05-08T03:55:27.744Z,29.83
2018-05-08T03:57:55.605Z,28.93
2018-05-08T04:00:36.073Z,28.83
2018-05-08T04:03:16.632Z,29.63
2018-05-08T04:08:57.745Z,27.80
2018-05-08T04:11:25.665Z,31.33
2018-05-08T04:13:53.539Z,30.13
2018-05-08T04:16:21.410Z,28.77
2018-05-08T04:18:49.286Z,27.33
2018-05-08T04:21:17.957Z,30.73
2018-05-08T04:23:45.856Z,29.10
2018-05-08T04:26:13.785Z,30.60
2018-05-08T04:28:41.706Z,31.10
2018-05-08T04:31:09.646Z,31.37
2018-05-08T04:33:38.290Z,29.43
2018-05-08T04:36:06.178Z,28.53
2018-05-08T04:38:34.061Z,29.23
2018-05-08T04:41:02.712Z,32.37
2018-05-08T04:43:30.583Z,31.30
2018-05-08T04:45:58.434Z,30.90
2018-05-08T04:48:26.338Z,30.00
2018-05-08T04:50:54.922Z,30.40
2018-05-08T04:53:23.562Z,30.93
2018-05-08T04:55:51.515Z,31.07
2018-05-08T04:58:20.085Z,31.63
2018-05-08T05:00:48.012Z,29.20
2018-05-08T05:03:15.891Z,31.00
2018-05-08T05:05:44.520Z,32.97
2018-05-08T05:08:12.435Z,31.60
2018-05-08T05:10:40.400Z,28.83
2018-05-08T05:13:08.227Z,30.57
2018-05-08T05:15:36.253Z,30.20
2018-05-08T05:18:06.422Z,30.90
2018-05-08T05:20:34.306Z,30.80
2018-05-08T05:23:02.156Z,29.27
2018-05-08T05:25:30.369Z,32.00
2018-05-08T05:27:58.380Z,33.50
2018-05-08T05:30:26.284Z,31.77
2018-05-08T05:32:54.220Z,34.03
2018-05-08T05:35:22.118Z,34.90
2018-05-08T05:37:50.767Z,34.97
2018-05-08T05:40:19.507Z,35.20
2018-05-08T05:42:47.386Z,35.33
2018-05-08T05:45:15.296Z,35.23
2018-05-08T05:47:43.220Z,34.30
2018-05-08T05:50:11.070Z,35.27
2018-05-08T05:52:38.939Z,32.43
2018-05-08T05:55:07.561Z,34.60
2018-05-08T05:57:35.484Z,32.60
2018-05-08T06:00:03.510Z,34.23
2018-05-08T06:02:32.108Z,34.93
2018-05-08T06:04:59.971Z,34.30
2018-05-08T06:07:27.880Z,32.73
2018-05-08T06:09:55.725Z,31.50
2018-05-08T06:12:23.620Z,33.60
2018-05-08T06:14:51.488Z,29.30
2018-05-08T06:17:19.423Z,33.33
2018-05-08T06:19:48.217Z,30.50
2018-05-08T06:22:16.072Z,31.07
2018-05-08T06:24:43.940Z,27.37
2018-05-08T06:27:11.847Z,29.87
2018-05-08T06:29:39.788Z,28.97
2018-05-08T06:32:07.636Z,26.43
2018-05-08T06:34:35.520Z,27.60
2018-05-08T06:37:03.384Z,27.70
2018-05-08T06:39:31.414Z,28.13
2018-05-08T06:41:59.360Z,25.50
2018-05-08T06:44:27.992Z,27.80
2018-05-08T06:46:55.849Z,28.57
2018-05-08T06:49:23.679Z,28.50
2018-05-08T06:51:52.295Z,27.60
2018-05-08T06:54:20.340Z,29.43
2018-05-08T06:56:48.931Z,28.10
2018-05-08T06:59:17.557Z,29.93
2018-05-08T07:01:46.514Z,28.00
2018-05-08T07:04:14.384Z,29.87
2018-05-08T07:06:42.308Z,25.60
2018-05-08T07:09:10.350Z,27.30
2018-05-08T07:11:38.201Z,27.90
2018-05-08T07:14:06.140Z,25.73
2018-05-08T07:16:34.852Z,26.97
2018-05-08T07:19:02.768Z,27.43
2018-05-08T07:21:30.646Z,28.27
2018-05-08T07:23:58.684Z,28.30
2018-05-08T07:26:26.539Z,27.80
2018-05-08T07:28:54.414Z,26.47
2018-05-08T07:31:22.358Z,25.00
2018-05-08T07:33:50.262Z,25.83
2018-05-08T07:36:18.092Z,25.90
2018-05-08T07:38:46.009Z,22.17
2018-05-08T07:41:13.850Z,20.90
2018-05-08T07:43:41.757Z,22.90
2018-05-08T07:46:10.472Z,22.80
2018-05-08T07:48:38.361Z,21.93
2018-05-08T07:51:06.335Z,20.40
2018-05-08T07:53:34.281Z,22.90
2018-05-08T07:56:02.177Z,21.80
2018-05-08T07:58:30.069Z,22.27
2018-05-08T08:00:57.968Z,21.83
2018-05-08T08:03:25.909Z,21.87
2018-05-08T08:05:53.746Z,21.57
2018-05-08T08:08:21.572Z,22.80
2018-05-08T08:10:49.516Z,24.27
2018-05-08T08:13:18.149Z,22.40
2018-05-08T08:15:46.089Z,21.43
2018-05-08T08:18:14.031Z,22.90
2018-05-08T08:20:41.851Z,23.23
2018-05-08T08:23:09.807Z,23.47
2018-05-08T08:25:37.644Z,22.37
2018-05-08T08:28:06.312Z,22.60
2018-05-08T08:30:34.164Z,21.83
2018-05-08T08:33:02.066Z,20.87
2018-05-08T08:35:30.785Z,20.37
2018-05-08T08:37:58.735Z,21.80
2018-05-08T08:40:27.435Z,20.10
2018-05-08T08:42:55.336Z,19.67
2018-05-08T08:45:23.160Z,18.50
2018-05-08T08:47:51.038Z,21.87
2018-05-08T08:50:18.904Z,18.40
2018-05-08T08:52:46.752Z,22.20
2018-05-08T08:55:15.090Z,20.63
2018-05-08T08:57:42.991Z,22.00
2018-05-08T09:00:11.741Z,20.63
2018-05-08T09:02:39.708Z,19.67
2018-05-08T09:05:07.618Z,23.10
2018-05-08T09:07:35.572Z,19.57
2018-05-08T09:10:04.248Z,20.17
2018-05-08T09:12:32.106Z,21.97
2018-05-08T09:15:02.791Z,21.73
2018-05-08T09:17:30.680Z,21.30
2018-05-08T09:19:59.332Z,21.73
2018-05-08T09:22:27.194Z,23.53
2018-05-08T09:24:55.064Z,20.33
2018-05-08T09:27:22.961Z,21.27
2018-05-08T09:29:50.900Z,19.83
2018-05-08T09:32:18.761Z,21.10
2018-05-08T09:34:46.685Z,21.97
2018-05-08T09:37:14.493Z,20.97
2018-05-08T09:39:42.409Z,20.20
2018-05-08T09:42:10.275Z,22.63
2018-05-08T09:44:38.177Z,21.80
2018-05-08T09:47:06.815Z,18.67
2018-05-08T09:49:34.637Z,19.37
2018-05-08T09:52:04.243Z,19.57
2018-05-08T09:54:32.840Z,17.87
2018-05-08T09:57:00.742Z,18.33
2018-05-08T09:59:28.622Z,18.10
2018-05-08T10:01:56.537Z,19.00
2018-05-08T10:04:24.492Z,15.40
2018-05-08T10:06:53.101Z,15.57
2018-05-08T10:09:20.939Z,17.43
2018-05-08T10:11:49.575Z,14.97
2018-05-08T10:14:17.471Z,19.57
2018-05-08T10:16:45.416Z,17.73
2018-05-08T10:19:13.420Z,13.43
2018-05-08T10:21:41.915Z,15.90
2018-05-08T10:24:10.516Z,19.47
2018-05-08T10:26:38.417Z,16.27
2018-05-08T10:29:07.025Z,16.00
2018-05-08T10:31:34.865Z,18.10
2018-05-08T10:34:02.729Z,16.90
2018-05-08T10:36:30.669Z,16.20
2018-05-08T10:38:58.584Z,16.57
2018-05-08T10:41:26.505Z,16.50
2018-05-08T10:43:54.407Z,15.93
2018-05-08T10:46:22.311Z,12.87
2018-05-08T10:48:50.988Z,15.40
2018-05-08T10:51:18.972Z,16.47
2018-05-08T10:53:47.660Z,16.20
2018-05-08T10:56:16.328Z,15.40
2018-05-08T10:58:44.175Z,16.23
2018-05-08T11:01:12.048Z,17.03
2018-05-08T11:03:39.919Z,17.70
2018-05-08T11:06:07.753Z,17.43
2018-05-08T11:08:35.721Z,15.97
2018-05-08T11:11:03.670Z,15.20
2018-05-08T11:13:31.563Z,16.33
2018-05-08T11:15:59.443Z,16.10
2018-05-08T11:18:28.576Z,13.23
2018-05-08T11:20:57.291Z,15.40
2018-05-08T11:23:25.171Z,15.07
2018-05-08T11:25:53.044Z,14.40
2018-05-08T11:28:20.871Z,14.53
2018-05-08T11:30:49.511Z,16.97
2018-05-08T11:33:17.447Z,14.70
2018-05-08T11:35:45.286Z,13.80
2018-05-08T11:38:13.916Z,14.40
2018-05-08T11:40:41.787Z,12.70
2018-05-08T11:43:09.658Z,11.37
2018-05-08T11:45:37.507Z,13.93
2018-05-08T11:48:05.467Z,12.03
2018-05-08T11:50:33.307Z,10.73
2018-05-08T11:53:01.932Z,13.80
2018-05-08T11:55:29.807Z,12.30
2018-05-08T11:57:57.695Z,11.47
2018-05-08T12:00:25.668Z,12.30
2018-05-08T12:02:53.605Z,11.00
2018-05-08T12:05:22.750Z,14.17
2018-05-08T12:07:50.668Z,18.33
2018-05-08T12:10:18.549Z,16.13
2018-05-08T12:12:46.415Z,16.83
2018-05-08T12:15:14.247Z,14.80
2018-05-08T12:17:42.123Z,15.60
2018-05-08T12:20:09.993Z,17.37
2018-05-08T12:22:37.917Z,17.17
2018-05-08T12:25:06.550Z,15.33
2018-05-08T12:27:34.512Z,15.07
2018-05-08T12:30:02.345Z,14.37
2018-05-08T12:32:30.277Z,14.60
2018-05-08T12:34:58.151Z,15.10
2018-05-08T12:37:26.014Z,13.70
2018-05-08T12:39:53.948Z,17.83
2018-05-08T12:42:21.836Z,15.40
2018-05-08T12:44:49.690Z,17.57
2018-05-08T12:47:17.678Z,18.20
2018-05-08T12:49:45.620Z,17.37
2018-05-08T12:52:13.521Z,14.73
2018-05-08T12:54:41.481Z,16.20
2018-05-08T12:57:09.468Z,16.63
2018-05-08T12:59:37.309Z,14.93
2018-05-08T13:02:05.199Z,12.90
2018-05-08T13:04:33.053Z,11.90
2018-05-08T13:07:01.211Z,11.80
2018-05-08T13:09:28.903Z,12.40
2018-05-08T13:11:57.581Z,14.07
2018-05-08T13:14:25.409Z,14.20
2018-05-08T13:16:53.364Z,12.47
2018-05-08T13:19:21.221Z,13.83
2018-05-08T13:21:49.053Z,13.93
2018-05-08T13:24:16.954Z,14.17
2018-05-08T13:26:44.835Z,16.07
2018-05-08T13:29:12.767Z,14.10
2018-05-08T13:31:41.394Z,15.00
2018-05-08T13:34:09.306Z,16.40
2018-05-08T13:36:37.281Z,14.17
2018-05-08T13:39:05.364Z,12.87
2018-05-08T13:41:33.972Z,12.73
2018-05-08T13:44:01.821Z,16.90
2018-05-08T13:46:29.694Z,16.10
2018-05-08T13:48:57.643Z,14.17
2018-05-08T13:51:27.096Z,14.03
2018-05-08T13:53:54.991Z,14.13
2018-05-08T13:56:22.869Z,14.50
2018-05-08T13:58:50.809Z,15.50
2018-05-08T14:01:19.196Z,14.83
2018-05-08T14:03:47.061Z,14.17
2018-05-08T14:06:15.040Z,14.10
2018-05-08T14:08:42.976Z,13.70
2018-05-08T14:11:10.856Z,11.53
2018-05-08T14:13:38.738Z,12.37
2018-05-08T14:16:06.710Z,12.20
2018-05-08T14:18:34.614Z,14.60
2018-05-08T14:21:02.567Z,15.80
2018-05-08T14:23:31.212Z,13.20
2018-05-08T14:25:59.928Z,14.60
2018-05-08T14:28:27.800Z,13.83
2018-05-08T14:30:56.481Z,14.10
2018-05-08T14:33:24.329Z,12.80
2018-05-08T14:35:52.260Z,13.23
2018-05-08T14:38:20.163Z,12.27
2018-05-08T14:40:48.109Z,13.30
2018-05-08T14:43:15.988Z,15.10
2018-05-08T14:45:43.917Z,13.73
2018-05-08T14:48:11.797Z,12.43
2018-05-08T14:50:39.700Z,12.50
2018-05-08T14:53:07.632Z,11.80
2018-05-08T14:55:35.565Z,12.80
2018-05-08T14:58:04.181Z,12.30
2018-05-08T15:00:32.009Z,14.50
2018-05-08T15:02:59.856Z,13.43
2018-05-08T15:05:27.713Z,13.03
2018-05-08T15:07:55.664Z,12.23
2018-05-08T15:10:23.550Z,12.70
2018-05-08T15:12:51.448Z,11.97
2018-05-08T15:15:20.064Z,11.67
2018-05-08T15:17:47.925Z,12.10
2018-05-08T15:20:15.788Z,12.40
2018-05-08T15:22:43.723Z,12.20
2018-05-08T15:25:11.678Z,11.37
2018-05-08T15:27:39.628Z,12.00
2018-05-08T15:30:07.484Z,10.30
2018-05-08T15:32:35.349Z,10.00
2018-05-08T15:35:03.243Z,10.03
2018-05-08T15:37:31.132Z,11.27
2018-05-08T15:39:59.856Z,9.20
2018-05-08T15:42:27.724Z,8.87
2018-05-08T15:44:55.629Z,10.23
2018-05-08T15:47:23.539Z,10.40
2018-05-08T15:49:53.312Z,8.93
2018-05-08T15:52:21.201Z,11.00
2018-05-08T15:54:49.821Z,9.47
2018-05-08T15:57:17.672Z,10.37
2018-05-08T15:59:45.597Z,10.93
2018-05-08T16:02:13.546Z,9.80
2018-05-08T16:04:41.456Z,10.07
2018-05-08T16:07:10.142Z,10.50
2018-05-08T16:09:38.747Z,9.80
2018-05-08T16:12:06.625Z,9.63
2018-05-08T16:14:34.488Z,10.70
2018-05-08T16:17:02.377Z,10.13
2018-05-08T16:19:30.301Z,9.20
2018-05-08T16:21:58.933Z,9.90
2018-05-08T16:24:26.856Z,9.97
2018-05-08T16:26:55.463Z,11.43
2018-05-08T16:29:23.296Z,10.97
2018-05-08T16:31:51.956Z,9.60
2018-05-08T16:34:19.831Z,8.80
2018-05-08T16:36:47.787Z,8.70
2018-05-08T16:39:15.713Z,8.50
2018-05-08T16:41:43.616Z,7.27
2018-05-08T16:44:11.481Z,8.10
2018-05-08T16:46:39.395Z,7.57
2018-05-08T16:49:08.081Z,6.80
2018-05-08T16:51:36.776Z,6.70
2018-05-08T16:54:04.788Z,6.53
2018-05-08T16:56:32.529Z,7.10
2018-05-08T16:59:00.437Z,7.60
2018-05-08T17:01:28.352Z,7.90
2018-05-08T17:03:56.208Z,7.50
2018-05-08T17:06:24.102Z,7.40
2018-05-08T17:08:51.975Z,7.57
2018-05-08T17:11:19.811Z,7.13
2018-05-08T17:13:47.690Z,6.23
2018-05-08T17:16:15.531Z,6.77
2018-05-08T17:18:44.135Z,8.50
2018-05-08T17:21:11.990Z,7.03
2018-05-08T17:23:40.608Z,6.23
2018-05-08T17:26:08.448Z,6.20
2018-05-08T17:28:36.341Z,6.60
2018-05-08T17:31:04.184Z,6.67
2018-05-08T17:33:32.184Z,6.83
2018-05-08T17:36:00.113Z,6.53
2018-05-08T17:38:27.970Z,6.57
2018-05-08T17:40:56.596Z,7.00
2018-05-08T17:43:25.615Z,6.70
2018-05-08T17:45:53.486Z,8.13
2018-05-08T17:48:21.349Z,6.20
2018-05-08T17:50:49.244Z,6.50
2018-05-08T17:53:17.899Z,6.80
2018-05-08T17:55:45.729Z,6.83
2018-05-08T17:58:13.636Z,7.00
2018-05-08T18:00:41.572Z,6.97
2018-05-08T18:03:09.409Z,7.33
2018-05-08T18:05:37.282Z,6.90
2018-05-08T18:08:05.175Z,7.07
2018-05-08T18:10:33.000Z,6.77
2018-05-08T18:13:01.616Z,7.03
2018-05-08T18:15:29.489Z,7.13
2018-05-08T18:17:57.371Z,8.17
2018-05-08T18:20:25.221Z,10.20
2018-05-08T18:22:53.067Z,10.07
2018-05-08T18:25:21.018Z,10.53
2018-05-08T18:27:49.639Z,11.87
2018-05-08T18:30:17.528Z,13.77
2018-05-08T18:32:45.461Z,14.67
2018-05-08T18:35:13.371Z,15.83
2018-05-08T18:37:41.361Z,15.97
2018-05-08T18:40:09.988Z,14.83
2018-05-08T18:42:37.952Z,13.67
2018-05-08T18:45:05.921Z,12.00
2018-05-08T18:47:33.857Z,13.40
2018-05-08T18:50:02.575Z,12.90
2018-05-08T18:52:30.556Z,12.17
2018-05-08T18:54:58.479Z,11.90
2018-05-08T18:57:27.181Z,12.23
2018-05-08T19:00:00.613Z,11.13
2018-05-08T19:02:28.554Z,12.23
2018-05-08T19:04:56.503Z,12.07
2018-05-08T19:07:25.191Z,13.07
2018-05-08T19:09:53.828Z,10.90
2018-05-08T19:12:21.685Z,10.93
2018-05-08T19:14:55.357Z,11.07
2018-05-08T19:17:23.268Z,10.90
2018-05-08T19:19:56.848Z,11.67
2018-05-08T19:22:24.693Z,11.53
2018-05-08T19:24:52.546Z,10.37
2018-05-08T19:27:21.264Z,10.87
2018-05-08T19:29:54.798Z,10.80
2018-05-08T19:32:22.756Z,11.70
2018-05-08T19:34:56.324Z,11.20
2018-05-08T19:37:29.760Z,11.50
2018-05-08T19:39:57.744Z,12.00
2018-05-08T19:42:25.580Z,10.43
2018-05-08T19:44:53.521Z,10.60
2018-05-08T19:47:21.414Z,11.80
2018-05-08T19:49:49.403Z,11.00
2018-05-08T19:52:17.404Z,11.20
2018-05-08T19:54:46.073Z,12.97
2018-05-08T19:57:13.901Z,10.47
2018-05-08T19:59:41.832Z,11.90
2018-05-08T20:02:09.795Z,12.63
2018-05-08T20:04:37.698Z,13.63
2018-05-08T20:07:05.632Z,15.50
2018-05-08T20:09:34.245Z,12.97
2018-05-08T20:12:02.132Z,15.77
2018-05-08T20:14:30.111Z,16.73
2018-05-08T20:16:57.978Z,17.00
2018-05-08T20:19:25.832Z,18.17
2018-05-08T20:21:53.717Z,17.93
2018-05-08T20:24:21.678Z,18.40
2018-05-08T20:26:49.557Z,16.37
2018-05-08T20:29:17.504Z,16.67
2018-05-08T20:31:45.459Z,18.23
2018-05-08T20:34:13.325Z,18.60
2018-05-08T20:36:41.261Z,20.00
2018-05-08T20:39:09.908Z,16.80
2018-05-08T20:41:37.790Z,19.50
2018-05-08T20:44:05.648Z,16.90
2018-05-08T20:46:33.537Z,20.07
2018-05-08T20:49:02.223Z,19.23
2018-05-08T20:51:30.837Z,19.13
2018-05-08T20:53:58.685Z,21.20
2018-05-08T20:56:26.521Z,19.17
2018-05-08T20:58:54.385Z,20.40
2018-05-08T21:01:22.353Z,18.70
2018-05-08T21:03:50.936Z,22.47
2018-05-08T21:06:18.800Z,20.60
2018-05-08T21:08:46.737Z,21.60
2018-05-08T21:11:14.679Z,21.43
2018-05-08T21:13:42.516Z,21.27
2018-05-08T21:16:11.503Z,22.23
2018-05-08T21:18:39.383Z,20.80
2018-05-08T21:21:08.100Z,21.87
2018-05-08T21:23:36.035Z,19.83
2018-05-08T21:26:04.792Z,20.50
2018-05-08T21:28:38.320Z,20.33
2018-05-08T21:31:14.263Z,18.77
2018-05-08T21:33:42.907Z,19.37
2018-05-08T21:36:10.807Z,22.27
2018-05-08T21:38:38.687Z,21.60
2018-05-08T21:41:06.555Z,22.63
2018-05-08T21:43:34.395Z,22.70
2018-05-08T21:46:02.212Z,22.60
2018-05-08T21:48:30.138Z,20.60
2018-05-08T21:50:58.028Z,22.80
2018-05-08T21:53:25.951Z,21.10
2018-05-08T21:55:53.853Z,22.47
2018-05-08T21:58:21.685Z,21.30
2018-05-08T22:00:49.625Z,22.90
2018-05-08T22:03:17.553Z,23.27
2018-05-08T22:05:45.425Z,23.53
2018-05-08T22:08:13.288Z,22.13
2018-05-08T22:10:41.174Z,24.60
2018-05-08T22:13:09.811Z,23.70
2018-05-08T22:15:37.691Z,23.43
2018-05-08T22:18:05.605Z,22.33
2018-05-08T22:20:33.476Z,22.80
2018-05-08T22:23:01.341Z,24.63
2018-05-08T22:25:29.232Z,27.10
2018-05-08T22:27:57.118Z,25.37
2018-05-08T22:30:25.817Z,26.40
2018-05-08T22:32:53.703Z,26.50
2018-05-08T22:35:22.309Z,29.00
2018-05-08T22:37:50.165Z,28.90
2018-05-08T22:40:18.775Z,28.10
2018-05-08T22:42:46.644Z,26.60
2018-05-08T22:45:14.580Z,27.40
2018-05-08T22:47:43.303Z,28.30
2018-05-08T22:50:11.264Z,28.40
2018-05-08T22:52:39.154Z,30.07
2018-05-08T22:55:06.984Z,25.70
2018-05-08T22:57:34.819Z,29.03
2018-05-08T23:00:02.783Z,27.83
2018-05-08T23:02:31.426Z,30.83
2018-05-08T23:04:59.336Z,27.30
2018-05-08T23:07:27.211Z,26.37
2018-05-08T23:09:55.964Z,28.07
2018-05-08T23:12:23.809Z,27.20
2018-05-08T23:14:51.691Z,26.10
2018-05-08T23:17:19.591Z,29.83
2018-05-08T23:19:47.441Z,27.50
2018-05-08T23:22:15.293Z,27.70
2018-05-08T23:24:45.192Z,29.07
2018-05-08T23:27:13.024Z,29.20
2018-05-08T23:29:42.548Z,26.77
2018-05-08T23:32:10.423Z,28.03
2018-05-08T23:34:38.312Z,27.47
2018-05-08T23:37:06.187Z,26.37
2018-05-08T23:39:34.138Z,28.00
2018-05-08T23:42:02.074Z,26.67
2018-05-08T23:44:30.051Z,26.67
2018-05-08T23:46:57.992Z,26.23
2018-05-08T23:49:26.644Z,26.67
2018-05-08T23:51:54.480Z,26.70
2018-05-08T23:54:22.443Z,25.40
2018-05-08T23:56:50.328Z,25.13
2018-05-08T23:59:18.196Z,26.63
